createdAt,value
2023-05-04T00:01:11.076Z,46.55
2023-05-04T00:03:39.268Z,47.30
2023-05-04T00:06:07.796Z,47.91
2023-05-04T00:08:36.385Z,48.43
2023-05-04T00:11:04.376Z,49.03
2023-05-04T00:13:32.730Z,49.21
2023-05-04T00:16:00.593Z,49.85
2023-05-04T00:18:28.544Z,50.20
2023-05-04T00:20:56.440Z,50.77
2023-05-04T00:23:24.450Z,50.88
2023-05-04T00:25:52.382Z,51.07
2023-05-04T00:28:20.786Z,51.33
2023-05-04T00:30:48.601Z,51.60
2023-05-04T00:33:16.602Z,51.95
2023-05-04T00:35:44.517Z,51.94
2023-05-04T00:38:13.445Z,52.12
2023-05-04T00:40:41.291Z,51.87
2023-05-04T00:43:09.469Z,51.58
2023-05-04T00:45:38.180Z,51.67
2023-05-04T00:48:07.064Z,51.71
2023-05-04T00:50:36.287Z,51.64
2023-05-04T00:53:11.882Z,51.41
2023-05-04T00:55:43.069Z,51.28
2023-05-04T00:58:11.698Z,51.20
2023-05-04T01:00:39.706Z,50.93
2023-05-04T01:03:10.153Z,50.67
2023-05-04T01:05:45.158Z,50.34
2023-05-04T01:08:21.748Z,50.11
2023-05-04T01:11:02.437Z,49.80
2023-05-04T01:13:34.792Z,49.72
2023-05-04T01:16:03.493Z,49.68
2023-05-04T01:18:31.918Z,49.64
2023-05-04T01:21:01.549Z,49.52
2023-05-04T01:23:31.472Z,49.57
2023-05-04T01:26:24.986Z,49.47
2023-05-04T01:29:08.379Z,49.54
2023-05-04T01:31:38.742Z,49.91
2023-05-04T01:34:08.843Z,50.01
2023-05-04T01:36:37.607Z,50.36
2023-05-04T01:39:05.634Z,50.75
2023-05-04T01:41:34.596Z,50.74
2023-05-04T01:44:03.809Z,50.91
2023-05-04T01:46:31.780Z,51.20
2023-05-04T01:49:01.005Z,51.32
2023-05-04T01:51:28.859Z,51.39
2023-05-04T01:53:58.184Z,51.56
2023-05-04T01:56:26.095Z,51.74
2023-05-04T01:58:53.995Z,51.84
2023-05-04T02:01:21.905Z,51.89
2023-05-04T02:03:49.916Z,51.98
2023-05-04T02:06:17.901Z,52.11
2023-05-04T02:08:47.112Z,52.07
2023-05-04T02:11:16.388Z,52.16
2023-05-04T02:13:46.270Z,52.22
2023-05-04T02:16:14.334Z,52.35
2023-05-04T02:18:42.493Z,52.15
2023-05-04T02:21:10.490Z,51.98
2023-05-04T02:23:38.423Z,52.10
2023-05-04T02:26:07.080Z,52.24
2023-05-04T02:28:34.978Z,52.34
2023-05-04T02:31:03.299Z,52.30
2023-05-04T02:33:31.214Z,52.46
2023-05-04T02:35:59.038Z,52.49
2023-05-04T02:38:26.952Z,52.55
2023-05-04T02:40:55.050Z,52.90
2023-05-04T02:43:22.949Z,52.85
2023-05-04T02:45:50.936Z,52.86
2023-05-04T02:48:18.912Z,53.00
2023-05-04T02:50:46.836Z,53.25
2023-05-04T02:53:14.762Z,53.69
2023-05-04T02:55:42.708Z,53.64
2023-05-04T02:58:10.651Z,53.64
2023-05-04T03:00:38.620Z,53.69
2023-05-04T03:03:07.316Z,53.74
2023-05-04T03:05:35.291Z,54.04
2023-05-04T03:08:03.290Z,54.01
2023-05-04T03:10:31.260Z,54.03
2023-05-04T03:13:03.984Z,54.26
2023-05-04T03:15:33.367Z,54.37
2023-05-04T03:18:01.699Z,54.32
2023-05-04T03:20:30.225Z,54.41
2023-05-04T03:22:58.746Z,54.27
2023-05-04T03:25:27.016Z,54.29
2023-05-04T03:27:55.197Z,54.31
2023-05-04T03:30:23.381Z,54.24
2023-05-04T03:32:51.463Z,54.17
2023-05-04T03:35:24.585Z,54.27
2023-05-04T03:37:54.171Z,54.21
2023-05-04T03:40:24.311Z,54.37
2023-05-04T03:42:53.456Z,54.47
2023-05-04T03:45:24.068Z,54.65
2023-05-04T03:47:52.368Z,54.69
2023-05-04T03:50:22.225Z,54.62
2023-05-04T03:52:50.226Z,54.67
2023-05-04T03:55:19.315Z,54.86
2023-05-04T03:57:49.911Z,55.05
2023-05-04T04:00:18.419Z,54.96
2023-05-04T04:02:50.230Z,55.05
2023-05-04T04:05:21.445Z,54.95
2023-05-04T04:07:51.012Z,54.99
2023-05-04T04:10:19.158Z,55.03
2023-05-04T04:12:47.111Z,55.16
2023-05-04T04:15:15.167Z,55.20
2023-05-04T04:17:43.213Z,55.15
2023-05-04T04:20:13.000Z,55.05
2023-05-04T04:22:41.059Z,54.99
2023-05-04T04:25:10.556Z,55.27
2023-05-04T04:27:38.547Z,55.42
2023-05-04T04:30:07.647Z,55.90
2023-05-04T04:32:36.111Z,56.50
2023-05-04T04:35:04.634Z,56.61
2023-05-04T04:37:32.573Z,56.28
2023-05-04T04:40:01.525Z,56.08
2023-05-04T04:42:29.657Z,56.16
2023-05-04T04:44:57.575Z,56.15
2023-05-04T04:47:25.616Z,56.27
2023-05-04T04:49:54.133Z,56.23
2023-05-04T04:52:23.826Z,56.28
2023-05-04T04:54:51.906Z,56.24
2023-05-04T04:57:19.938Z,56.37
2023-05-04T04:59:47.936Z,56.61
2023-05-04T05:02:15.870Z,57.20
2023-05-04T05:04:43.988Z,57.39
2023-05-04T05:07:12.631Z,57.79
2023-05-04T05:09:40.509Z,57.81
2023-05-04T05:12:08.447Z,57.95
2023-05-04T05:14:36.276Z,57.75
2023-05-04T05:17:04.395Z,58.23
2023-05-04T05:19:37.275Z,57.96
2023-05-04T05:22:05.271Z,57.81
2023-05-04T05:24:33.088Z,57.80
2023-05-04T05:27:01.007Z,57.70
2023-05-04T05:29:28.952Z,57.47
2023-05-04T05:31:56.786Z,57.40
2023-05-04T05:34:24.696Z,56.96
2023-05-04T05:36:52.659Z,56.87
2023-05-04T05:39:20.720Z,56.81
2023-05-04T05:41:48.668Z,56.82
2023-05-04T05:44:16.527Z,56.64
2023-05-04T05:46:44.520Z,56.69
2023-05-04T05:49:12.449Z,56.66
2023-05-04T05:51:40.332Z,56.85
2023-05-04T05:54:08.219Z,57.35
2023-05-04T05:56:36.034Z,57.94
2023-05-04T05:59:04.360Z,58.95
2023-05-04T06:01:32.282Z,59.55
2023-05-04T06:04:00.492Z,60.30
2023-05-04T06:06:28.669Z,60.45
2023-05-04T06:09:16.471Z,60.66
2023-05-04T06:11:44.326Z,60.64
2023-05-04T06:14:12.278Z,60.40
2023-05-04T06:16:40.329Z,60.04
2023-05-04T06:19:08.231Z,59.83
2023-05-04T06:21:36.182Z,59.76
2023-05-04T06:24:04.329Z,59.83
2023-05-04T06:26:32.275Z,59.91
2023-05-04T06:29:00.541Z,59.80
2023-05-04T06:31:28.632Z,59.92
2023-05-04T06:33:57.569Z,59.86
2023-05-04T06:36:28.233Z,59.73
2023-05-04T06:38:58.290Z,59.64
2023-05-04T06:41:26.483Z,59.54
2023-05-04T06:43:55.617Z,59.43
2023-05-04T06:46:25.764Z,59.38
2023-05-04T06:48:54.638Z,59.31
2023-05-04T06:51:22.569Z,59.46
2023-05-04T06:53:50.805Z,59.97
2023-05-04T06:56:18.621Z,61.12
2023-05-04T06:58:46.612Z,61.74
2023-05-04T07:01:16.868Z,61.94
2023-05-04T07:03:46.233Z,61.93
2023-05-04T07:06:14.349Z,61.72
2023-05-04T07:08:42.474Z,61.64
2023-05-04T07:11:10.572Z,61.63
2023-05-04T07:13:38.863Z,61.77
2023-05-04T07:16:09.226Z,61.77
2023-05-04T07:18:39.044Z,61.96
2023-05-04T07:23:44.698Z,62.37
2023-05-04T07:26:12.660Z,62.63
2023-05-04T07:28:43.984Z,62.01
2023-05-04T07:31:13.111Z,62.34
2023-05-04T07:33:41.350Z,62.35
2023-05-04T07:36:09.622Z,62.04
2023-05-04T07:38:37.994Z,61.49
2023-05-04T07:41:07.424Z,61.38
2023-05-04T07:43:35.378Z,62.32
2023-05-04T07:46:03.453Z,62.23
2023-05-04T07:48:34.524Z,62.35
2023-05-04T07:51:04.113Z,62.31
2023-05-04T07:53:33.920Z,62.72
2023-05-04T07:56:12.909Z,63.20
2023-05-04T07:58:41.589Z,62.98
2023-05-04T08:01:09.611Z,63.30
2023-05-04T08:03:38.389Z,63.69
2023-05-04T08:06:08.466Z,63.67
2023-05-04T08:08:36.537Z,63.83
2023-05-04T08:11:44.987Z,63.16
2023-05-04T08:14:12.997Z,62.99
2023-05-04T08:16:41.122Z,63.05
2023-05-04T08:19:09.997Z,62.89
2023-05-04T08:21:38.116Z,62.55
2023-05-04T08:24:26.236Z,62.49
2023-05-04T08:27:07.045Z,62.78
2023-05-04T08:29:37.550Z,63.01
2023-05-04T08:32:06.199Z,63.28
2023-05-04T08:34:35.893Z,63.55
2023-05-04T08:37:04.789Z,64.13
2023-05-04T08:39:32.980Z,64.68
2023-05-04T08:42:02.277Z,64.62
2023-05-04T08:44:31.301Z,64.66
2023-05-04T08:46:59.301Z,64.99
2023-05-04T08:49:27.425Z,65.83
2023-05-04T08:51:57.505Z,66.26
2023-05-04T08:54:27.963Z,66.34
2023-05-04T08:56:57.176Z,66.51
2023-05-04T08:59:28.872Z,66.63
2023-05-04T09:01:59.724Z,66.79
2023-05-04T09:04:29.728Z,66.69
2023-05-04T09:06:58.779Z,66.89
2023-05-04T09:09:29.249Z,66.91
2023-05-04T09:11:59.092Z,66.97
2023-05-04T09:14:37.233Z,66.94
2023-05-04T09:17:28.120Z,66.59
2023-05-04T09:20:03.573Z,66.78
2023-05-04T09:22:31.683Z,67.83
2023-05-04T09:25:11.540Z,68.83
2023-05-04T09:27:43.379Z,69.19
2023-05-04T09:30:12.970Z,69.16
2023-05-04T09:32:48.569Z,69.69
2023-05-04T09:35:29.637Z,69.85
2023-05-04T09:38:01.490Z,70.45
2023-05-04T09:40:37.793Z,70.58
2023-05-04T09:43:15.269Z,69.41
2023-05-04T09:45:45.012Z,69.02
2023-05-04T09:48:29.365Z,68.76
2023-05-04T09:51:03.369Z,67.98
2023-05-04T09:53:32.406Z,67.80
2023-05-04T09:56:13.565Z,67.29
2023-05-04T09:58:43.195Z,67.82
2023-05-04T10:01:11.851Z,68.69
2023-05-04T10:03:39.939Z,68.80
2023-05-04T10:06:09.549Z,69.31
2023-05-04T10:08:38.270Z,69.48
2023-05-04T10:11:07.633Z,69.18
2023-05-04T10:13:39.924Z,69.40
2023-05-04T10:16:44.096Z,68.92
2023-05-04T10:19:35.862Z,68.65
2023-05-04T10:23:08.497Z,69.08
2023-05-04T10:26:37.087Z,69.98
2023-05-04T10:29:49.054Z,71.12
2023-05-04T10:32:24.328Z,72.02
2023-05-04T10:35:29.194Z,71.79
2023-05-04T10:37:57.335Z,72.47
2023-05-04T10:40:38.988Z,72.59
2023-05-04T10:43:08.688Z,72.79
2023-05-04T10:45:37.892Z,72.48
2023-05-04T10:48:08.555Z,72.12
2023-05-04T10:50:49.462Z,71.53
2023-05-04T10:53:18.361Z,71.37
2023-05-04T10:55:47.774Z,70.98
2023-05-04T10:58:19.214Z,70.78
2023-05-04T11:00:48.546Z,70.67
2023-05-04T11:03:19.044Z,70.01
2023-05-04T11:05:54.806Z,69.59
2023-05-04T11:08:46.900Z,69.31
2023-05-04T11:11:16.132Z,68.84
2023-05-04T11:13:49.008Z,68.68
2023-05-04T11:16:27.509Z,67.88
2023-05-04T11:18:56.224Z,67.28
2023-05-04T11:21:25.995Z,67.44
2023-05-04T11:24:02.752Z,67.35
2023-05-04T11:26:30.467Z,67.36
2023-05-04T11:28:58.586Z,67.55
2023-05-04T11:31:27.198Z,67.96
2023-05-04T11:33:55.418Z,67.74
2023-05-04T11:36:24.866Z,68.08
2023-05-04T11:38:56.649Z,68.13
2023-05-04T11:41:26.304Z,68.40
2023-05-04T11:43:54.413Z,68.92
2023-05-04T11:46:22.562Z,68.70
2023-05-04T11:48:50.669Z,68.32
2023-05-04T11:51:19.336Z,68.04
2023-05-04T11:53:47.401Z,68.11
2023-05-04T11:56:15.687Z,68.14
2023-05-04T11:58:43.908Z,67.68
2023-05-04T12:01:11.882Z,67.58
2023-05-04T12:03:53.076Z,67.26
2023-05-04T12:06:34.400Z,67.20
2023-05-04T12:09:04.880Z,67.03
2023-05-04T12:11:34.210Z,67.05
2023-05-04T12:14:10.402Z,67.18
2023-05-04T12:16:39.305Z,66.71
2023-05-04T12:19:13.091Z,66.24
2023-05-04T12:21:57.449Z,65.58
2023-05-04T12:24:27.812Z,64.87
2023-05-04T12:26:56.159Z,64.42
2023-05-04T12:29:24.208Z,64.19
2023-05-04T12:31:52.330Z,64.25
2023-05-04T12:34:20.449Z,63.83
2023-05-04T12:36:51.530Z,64.14
2023-05-04T12:39:19.657Z,63.92
2023-05-04T12:41:47.900Z,63.56
2023-05-04T12:44:16.981Z,63.37
2023-05-04T12:46:45.297Z,62.96
2023-05-04T12:49:14.904Z,62.42
2023-05-04T12:52:03.443Z,62.21
2023-05-04T12:54:31.765Z,62.45
2023-05-04T12:56:59.903Z,62.79
2023-05-04T12:59:27.934Z,62.78
2023-05-04T13:01:55.930Z,63.14
2023-05-04T13:04:23.974Z,63.46
2023-05-04T13:06:52.099Z,63.53
2023-05-04T13:09:20.861Z,63.88
2023-05-04T13:11:49.978Z,64.12
2023-05-04T13:14:18.024Z,64.55
2023-05-04T13:16:46.024Z,64.44
2023-05-04T13:19:14.039Z,64.20
2023-05-04T13:21:42.027Z,64.24
2023-05-04T13:24:11.409Z,64.45
2023-05-04T13:26:39.707Z,64.48
2023-05-04T13:29:07.811Z,64.35
2023-05-04T13:31:35.806Z,64.43
2023-05-04T13:34:04.211Z,64.59
2023-05-04T13:36:32.604Z,64.64
2023-05-04T13:39:00.920Z,64.50
2023-05-04T13:41:29.138Z,64.20
2023-05-04T13:43:57.280Z,63.88
2023-05-04T13:46:25.304Z,63.51
2023-05-04T13:48:55.173Z,63.67
2023-05-04T13:51:24.975Z,63.46
2023-05-04T13:53:53.130Z,63.13
2023-05-04T13:56:21.107Z,63.11
2023-05-04T13:58:49.157Z,63.20
2023-05-04T14:01:17.371Z,63.30
2023-05-04T14:03:45.928Z,63.35
2023-05-04T14:06:14.066Z,62.94
2023-05-04T14:08:42.112Z,62.75
2023-05-04T14:11:10.704Z,62.87
2023-05-04T14:13:38.847Z,62.86
2023-05-04T14:16:06.804Z,62.81
2023-05-04T14:18:34.818Z,62.59
2023-05-04T14:21:02.704Z,62.56
2023-05-04T14:23:30.535Z,62.80
2023-05-04T14:25:58.568Z,62.91
2023-05-04T14:28:26.897Z,63.21
2023-05-04T14:30:54.879Z,63.27
2023-05-04T14:33:22.712Z,63.19
2023-05-04T14:35:51.051Z,63.12
2023-05-04T14:38:18.972Z,63.32
2023-05-04T14:40:48.994Z,63.42
2023-05-04T14:43:17.576Z,63.63
2023-05-04T14:45:45.807Z,64.00
2023-05-04T14:48:13.761Z,64.62
2023-05-04T14:50:41.993Z,64.52
2023-05-04T14:53:10.251Z,64.73
2023-05-04T14:55:41.925Z,64.96
2023-05-04T14:58:09.961Z,65.22
2023-05-04T15:00:38.210Z,65.29
2023-05-04T15:03:06.506Z,64.99
2023-05-04T15:05:34.557Z,65.12
2023-05-04T15:08:02.907Z,65.20
2023-05-04T15:10:30.991Z,65.22
2023-05-04T15:13:00.089Z,65.66
2023-05-04T15:15:28.106Z,66.18
2023-05-04T15:17:56.084Z,66.88
2023-05-04T15:20:24.600Z,67.19
2023-05-04T15:22:53.848Z,67.20
2023-05-04T15:25:23.938Z,67.29
2023-05-04T15:27:51.882Z,67.88
2023-05-04T15:30:20.040Z,68.04
2023-05-04T15:32:48.499Z,68.06
2023-05-04T15:35:16.536Z,68.16
2023-05-04T15:37:44.400Z,68.15
2023-05-04T15:40:12.955Z,68.20
2023-05-04T15:42:40.772Z,68.25
2023-05-04T15:45:10.518Z,68.12
2023-05-04T15:47:38.777Z,67.65
2023-05-04T15:50:07.156Z,67.71
2023-05-04T15:52:35.741Z,67.82
2023-05-04T15:55:16.459Z,67.84
2023-05-04T15:57:52.418Z,67.64
2023-05-04T16:00:21.193Z,67.41
2023-05-04T16:02:49.304Z,67.51
2023-05-04T16:05:17.464Z,67.71
2023-05-04T16:07:45.851Z,67.66
2023-05-04T16:10:13.789Z,67.61
2023-05-04T16:12:41.833Z,67.63
2023-05-04T16:15:10.258Z,67.94
2023-05-04T16:17:38.323Z,67.94
2023-05-04T16:20:08.127Z,67.87
2023-05-04T16:22:36.511Z,68.14
2023-05-04T16:25:05.029Z,68.15
2023-05-04T16:27:33.042Z,68.35
2023-05-04T16:30:01.208Z,68.44
2023-05-04T16:32:29.124Z,68.48
2023-05-04T16:34:57.259Z,68.32
2023-05-04T16:37:25.338Z,68.30
2023-05-04T16:39:55.114Z,68.49
2023-05-04T16:42:23.072Z,68.49
2023-05-04T16:44:50.972Z,68.36
2023-05-04T16:47:18.934Z,68.65
2023-05-04T16:49:46.728Z,68.80
2023-05-04T16:52:14.650Z,69.05
2023-05-04T16:54:42.557Z,69.46
2023-05-04T16:57:10.819Z,69.80
2023-05-04T16:59:38.778Z,69.91
2023-05-04T17:04:36.400Z,69.89
2023-05-04T17:07:04.448Z,69.55
2023-05-04T17:09:32.415Z,69.71
2023-05-04T17:12:01.146Z,69.95
2023-05-04T17:14:29.118Z,70.16
2023-05-04T17:16:57.048Z,70.31
2023-05-04T17:19:24.924Z,70.43
2023-05-04T17:21:52.991Z,70.83
2023-05-04T17:24:20.883Z,70.86
2023-05-04T17:26:48.728Z,71.09
2023-05-04T17:29:16.849Z,71.33
2023-05-04T17:31:44.900Z,71.04
2023-05-04T17:34:12.824Z,71.01
2023-05-04T17:36:40.636Z,71.13
2023-05-04T17:39:08.514Z,71.36
2023-05-04T17:41:36.501Z,71.62
2023-05-04T17:44:04.883Z,71.93
2023-05-04T17:46:33.589Z,71.97
2023-05-04T17:49:01.777Z,71.94
2023-05-04T17:51:29.665Z,72.25
2023-05-04T17:53:57.468Z,72.43
2023-05-04T17:56:25.655Z,72.36
2023-05-04T17:58:53.672Z,72.43
2023-05-04T18:01:21.805Z,72.42
2023-05-04T18:03:49.781Z,72.40
2023-05-04T18:06:17.988Z,72.41
2023-05-04T18:08:45.950Z,72.44
2023-05-04T18:11:13.819Z,72.26
2023-05-04T18:13:41.737Z,72.12
2023-05-04T18:16:09.839Z,72.16
2023-05-04T18:18:37.791Z,72.09
2023-05-04T18:21:05.751Z,72.19
2023-05-04T18:23:33.734Z,72.04
2023-05-04T18:26:01.771Z,72.02
2023-05-04T18:28:29.983Z,71.98
2023-05-04T18:30:57.856Z,72.09
2023-05-04T18:33:25.725Z,71.97
2023-05-04T18:35:53.613Z,71.96
2023-05-04T18:38:21.680Z,71.93
2023-05-04T18:40:52.887Z,71.94
2023-05-04T18:43:20.889Z,71.96
2023-05-04T18:45:49.077Z,71.91
2023-05-04T18:48:17.125Z,72.12
2023-05-04T18:50:56.246Z,72.16
2023-05-04T18:53:25.206Z,72.27
2023-05-04T18:56:04.535Z,72.32
2023-05-04T18:58:33.035Z,72.52
2023-05-04T19:01:01.107Z,72.62
2023-05-04T19:03:29.374Z,72.70
2023-05-04T19:05:57.522Z,73.07
2023-05-04T19:08:25.307Z,73.47
2023-05-04T19:10:57.731Z,73.67
2023-05-04T19:13:25.625Z,73.79
2023-05-04T19:15:53.578Z,73.89
2023-05-04T19:18:22.187Z,73.87
2023-05-04T19:20:50.462Z,74.11
2023-05-04T19:23:18.589Z,74.34
2023-05-04T19:25:46.498Z,74.23
2023-05-04T19:28:14.506Z,74.82
2023-05-04T19:30:42.484Z,75.51
2023-05-04T19:33:10.698Z,75.87
2023-05-04T19:35:38.686Z,76.39
2023-05-04T19:38:06.844Z,76.69
2023-05-04T19:40:35.147Z,76.85
2023-05-04T19:43:04.056Z,77.15
2023-05-04T19:45:32.941Z,77.54
2023-05-04T19:48:03.080Z,77.68
2023-05-04T19:50:31.223Z,77.61
2023-05-04T19:52:59.299Z,77.79
2023-05-04T19:55:27.622Z,77.79
2023-05-04T19:57:56.268Z,77.78
2023-05-04T20:00:24.320Z,77.79
2023-05-04T20:02:52.701Z,78.13
2023-05-04T20:05:20.842Z,77.98
2023-05-04T20:07:48.840Z,77.94
2023-05-04T20:10:16.882Z,77.98
2023-05-04T20:12:44.912Z,78.01
2023-05-04T20:15:12.906Z,77.88
2023-05-04T20:17:41.676Z,77.83
2023-05-04T20:20:10.801Z,77.95
2023-05-04T20:22:38.819Z,77.89
2023-05-04T20:25:07.137Z,77.86
2023-05-04T20:27:35.160Z,77.81
2023-05-04T20:30:03.701Z,77.81
2023-05-04T20:32:31.776Z,77.91
2023-05-04T20:34:59.811Z,77.83
2023-05-04T20:37:27.857Z,77.88
2023-05-04T20:39:56.321Z,77.86
2023-05-04T20:42:24.619Z,77.99
2023-05-04T20:44:52.574Z,77.69
2023-05-04T20:47:20.567Z,77.58
2023-05-04T20:49:48.429Z,77.52
2023-05-04T20:52:16.538Z,77.39
2023-05-04T20:54:44.913Z,77.36
2023-05-04T20:57:13.280Z,77.24
2023-05-04T20:59:41.368Z,77.30
2023-05-04T21:02:09.350Z,77.38
2023-05-04T21:04:37.302Z,77.33
2023-05-04T21:07:05.337Z,77.36
2023-05-04T21:09:33.285Z,77.33
2023-05-04T21:12:01.221Z,77.34
2023-05-04T21:14:29.233Z,77.32
2023-05-04T21:16:57.157Z,77.35
2023-05-04T21:19:25.137Z,77.33
2023-05-04T21:21:53.531Z,77.45
2023-05-04T21:24:21.919Z,77.52
2023-05-04T21:26:50.412Z,77.48
2023-05-04T21:29:18.460Z,77.51
2023-05-04T21:31:47.015Z,77.58
2023-05-04T21:34:15.317Z,77.75
2023-05-04T21:36:44.639Z,77.76
2023-05-04T21:39:12.617Z,77.79
2023-05-04T21:41:40.865Z,77.94
2023-05-04T21:44:08.952Z,78.18
2023-05-04T21:46:37.025Z,78.35
2023-05-04T21:49:05.004Z,78.64
2023-05-04T21:51:33.027Z,78.76
2023-05-04T21:54:02.169Z,78.78
2023-05-04T21:56:30.174Z,78.99
2023-05-04T21:58:58.107Z,78.88
2023-05-04T22:01:27.055Z,79.12
2023-05-04T22:03:55.439Z,79.33
2023-05-04T22:06:24.554Z,79.50
2023-05-04T22:08:52.663Z,79.46
2023-05-04T22:11:20.707Z,79.33
2023-05-04T22:13:48.786Z,79.48
2023-05-04T22:16:16.757Z,79.63
2023-05-04T22:18:44.658Z,79.86
2023-05-04T22:21:12.676Z,80.12
2023-05-04T22:23:40.959Z,80.27
2023-05-04T22:26:09.028Z,80.35
2023-05-04T22:28:36.942Z,80.70
2023-05-04T22:31:05.382Z,80.78
2023-05-04T22:33:33.358Z,80.75
2023-05-04T22:36:01.426Z,80.70
2023-05-04T22:38:29.416Z,80.86
2023-05-04T22:40:57.304Z,80.78
2023-05-04T22:43:25.510Z,80.44
2023-05-04T22:45:53.442Z,80.39
2023-05-04T22:48:22.434Z,80.49
2023-05-04T22:50:51.084Z,80.36
2023-05-04T22:53:18.990Z,80.24
2023-05-04T22:55:47.568Z,80.11
2023-05-04T22:58:15.477Z,79.79
2023-05-04T23:00:43.367Z,79.58
2023-05-04T23:03:11.475Z,79.51
2023-05-04T23:05:39.905Z,79.44
2023-05-04T23:08:07.974Z,79.35
2023-05-04T23:10:35.938Z,79.33
2023-05-04T23:13:03.916Z,79.36
2023-05-04T23:15:32.781Z,79.33
2023-05-04T23:18:00.856Z,79.47
2023-05-04T23:20:28.855Z,79.70
2023-05-04T23:22:56.901Z,79.84
2023-05-04T23:25:24.963Z,80.11
2023-05-04T23:27:52.962Z,80.26
2023-05-04T23:30:20.961Z,80.25
2023-05-04T23:32:48.914Z,80.21
2023-05-04T23:35:17.484Z,80.15
2023-05-04T23:37:45.434Z,80.03
2023-05-04T23:40:13.668Z,80.02
2023-05-04T23:42:41.645Z,80.08
2023-05-04T23:45:11.750Z,79.75
2023-05-04T23:47:39.778Z,79.84
2023-05-04T23:50:08.840Z,79.76
2023-05-04T23:52:37.384Z,79.67
2023-05-04T23:55:06.714Z,79.56
2023-05-04T23:57:34.631Z,79.61
